sensor_id;sensor_type;location;lat;lon;timestamp;P1;durP1;ratioP1;P2;durP2;ratioP2
84254;SDS011;74400;44.692;18.998;2024-03-25T09:28:17;1.60;;;1.02;;
84254;SDS011;74400;44.692;18.998;2024-03-25T09:34:08;1.65;;;1.23;;
84254;SDS011;74400;44.692;18.998;2024-03-25T09:36:34;1.67;;;0.85;;
84254;SDS011;74400;44.692;18.998;2024-03-25T09:39:00;1.70;;;0.70;;
84254;SDS011;74400;44.692;18.998;2024-03-25T09:41:26;0.90;;;0.68;;
84254;SDS011;74400;44.692;18.998;2024-03-25T09:44:01;1.20;;;0.60;;
84254;SDS011;74400;44.692;18.998;2024-03-25T09:46:31;2.15;;;1.15;;
84254;SDS011;74400;44.692;18.998;2024-03-25T09:48:58;1.13;;;0.68;;
84254;SDS011;74400;44.692;18.998;2024-03-25T09:51:25;0.77;;;0.60;;
84254;SDS011;74400;44.692;18.998;2024-03-25T09:53:53;1.08;;;0.65;;
84254;SDS011;74400;44.692;18.998;2024-03-25T09:56:19;1.05;;;0.70;;
84254;SDS011;74400;44.692;18.998;2024-03-25T09:58:44;2.15;;;0.80;;
84254;SDS011;74400;44.692;18.998;2024-03-25T10:01:10;1.80;;;0.60;;
84254;SDS011;74400;44.692;18.998;2024-03-25T10:03:36;1.23;;;0.70;;
84254;SDS011;74400;44.692;18.998;2024-03-25T10:06:02;0.80;;;0.80;;
84254;SDS011;74400;44.692;18.998;2024-03-25T10:08:28;1.15;;;0.60;;
84254;SDS011;74400;44.692;18.998;2024-03-25T10:10:55;1.17;;;0.80;;
84254;SDS011;74400;44.692;18.998;2024-03-25T10:13:21;1.70;;;1.00;;
84254;SDS011;74400;44.692;18.998;2024-03-25T10:15:48;2.53;;;0.95;;
84254;SDS011;74400;44.692;18.998;2024-03-25T10:18:14;0.70;;;0.40;;
84254;SDS011;74400;44.692;18.998;2024-03-25T10:23:15;3.95;;;2.03;;
84254;SDS011;74400;44.692;18.998;2024-03-25T10:25:41;3.60;;;1.77;;
84254;SDS011;74400;44.692;18.998;2024-03-25T10:28:06;2.67;;;1.10;;
84254;SDS011;74400;44.692;18.998;2024-03-25T10:30:33;2.05;;;0.95;;
84254;SDS011;74400;44.692;18.998;2024-03-25T10:35:30;2.97;;;1.20;;
84254;SDS011;74400;44.692;18.998;2024-03-25T10:37:58;1.20;;;0.93;;
84254;SDS011;74400;44.692;18.998;2024-03-25T10:40:33;1.42;;;0.82;;
84254;SDS011;74400;44.692;18.998;2024-03-25T10:43:01;1.27;;;0.70;;
84254;SDS011;74400;44.692;18.998;2024-03-25T10:45:29;1.15;;;0.73;;
84254;SDS011;74400;44.692;18.998;2024-03-25T10:47:56;1.77;;;0.98;;
84254;SDS011;74400;44.692;18.998;2024-03-25T10:50:28;1.77;;;0.47;;
84254;SDS011;74400;44.692;18.998;2024-03-25T10:53:00;2.55;;;1.20;;
84254;SDS011;74400;44.692;18.998;2024-03-25T10:55:29;0.90;;;0.60;;
84254;SDS011;74400;44.692;18.998;2024-03-25T10:57:56;0.63;;;0.63;;
84254;SDS011;74400;44.692;18.998;2024-03-25T11:00:23;0.70;;;0.40;;
84254;SDS011;74400;44.692;18.998;2024-03-25T11:02:52;1.35;;;0.60;;
84254;SDS011;74400;44.692;18.998;2024-03-25T11:05:19;0.57;;;0.38;;
84254;SDS011;74400;44.692;18.998;2024-03-25T11:07:51;1.30;;;0.65;;
84254;SDS011;74400;44.692;18.998;2024-03-25T11:10:18;1.52;;;1.10;;
84254;SDS011;74400;44.692;18.998;2024-03-25T11:12:43;0.70;;;0.70;;
84254;SDS011;74400;44.692;18.998;2024-03-25T11:15:10;1.67;;;0.90;;
84254;SDS011;74400;44.692;18.998;2024-03-25T11:17:36;1.42;;;0.80;;
84254;SDS011;74400;44.692;18.998;2024-03-25T11:20:06;2.45;;;1.40;;
84254;SDS011;74400;44.692;18.998;2024-03-25T11:22:35;1.55;;;0.50;;
84254;SDS011;74400;44.692;18.998;2024-03-25T11:25:07;1.30;;;0.80;;
84254;SDS011;74400;44.692;18.998;2024-03-25T11:27:36;1.60;;;1.15;;
84254;SDS011;74400;44.692;18.998;2024-03-25T11:30:03;2.20;;;1.33;;
84254;SDS011;74400;44.692;18.998;2024-03-25T11:32:41;1.95;;;0.98;;
84254;SDS011;74400;44.692;18.998;2024-03-25T11:35:19;2.58;;;1.48;;
84254;SDS011;74400;44.692;18.998;2024-03-25T11:37:44;1.50;;;1.05;;
84254;SDS011;74400;44.692;18.998;2024-03-25T11:40:11;1.33;;;0.60;;
84254;SDS011;74400;44.692;18.998;2024-03-25T11:42:43;2.55;;;1.75;;
84254;SDS011;74400;44.692;18.998;2024-03-25T11:45:16;1.27;;;0.75;;
84254;SDS011;74400;44.692;18.998;2024-03-25T11:47:43;2.60;;;1.20;;
84254;SDS011;74400;44.692;18.998;2024-03-25T11:50:14;2.17;;;0.80;;
84254;SDS011;74400;44.692;18.998;2024-03-25T11:52:44;3.55;;;2.22;;
84254;SDS011;74400;44.692;18.998;2024-03-25T11:55:10;4.18;;;1.02;;
84254;SDS011;74400;44.692;18.998;2024-03-25T11:57:37;2.75;;;1.27;;
84254;SDS011;74400;44.692;18.998;2024-03-25T12:00:03;2.75;;;1.20;;
84254;SDS011;74400;44.692;18.998;2024-03-25T12:02:44;3.10;;;1.88;;
84254;SDS011;74400;44.692;18.998;2024-03-25T12:05:12;3.40;;;1.73;;
84254;SDS011;74400;44.692;18.998;2024-03-25T12:07:38;4.35;;;1.65;;
84254;SDS011;74400;44.692;18.998;2024-03-25T12:10:04;2.80;;;1.10;;
84254;SDS011;74400;44.692;18.998;2024-03-25T12:12:45;2.20;;;1.27;;
84254;SDS011;74400;44.692;18.998;2024-03-25T12:15:12;4.10;;;1.98;;
84254;SDS011;74400;44.692;18.998;2024-03-25T12:17:37;1.40;;;0.70;;
84254;SDS011;74400;44.692;18.998;2024-03-25T12:20:04;2.88;;;1.65;;
84254;SDS011;74400;44.692;18.998;2024-03-25T12:22:31;1.70;;;1.20;;
84254;SDS011;74400;44.692;18.998;2024-03-25T12:25:01;3.42;;;1.80;;
84254;SDS011;74400;44.692;18.998;2024-03-25T12:27:31;1.92;;;1.17;;
84254;SDS011;74400;44.692;18.998;2024-03-25T12:29:58;2.63;;;0.77;;
84254;SDS011;74400;44.692;18.998;2024-03-25T12:32:35;3.17;;;1.27;;
84254;SDS011;74400;44.692;18.998;2024-03-25T12:35:02;4.28;;;2.08;;
84254;SDS011;74400;44.692;18.998;2024-03-25T12:37:32;3.17;;;1.55;;
84254;SDS011;74400;44.692;18.998;2024-03-25T12:39:58;2.63;;;1.15;;
84254;SDS011;74400;44.692;18.998;2024-03-25T12:42:27;3.17;;;1.55;;
84254;SDS011;74400;44.692;18.998;2024-03-25T12:44:53;3.88;;;2.13;;
84254;SDS011;74400;44.692;18.998;2024-03-25T12:49:45;3.30;;;1.95;;
84254;SDS011;74400;44.692;18.998;2024-03-25T12:52:11;4.28;;;1.40;;
84254;SDS011;74400;44.692;18.998;2024-03-25T12:54:37;5.18;;;2.25;;
84254;SDS011;74400;44.692;18.998;2024-03-25T12:57:06;3.38;;;1.40;;
84254;SDS011;74400;44.692;18.998;2024-03-25T12:59:40;3.25;;;1.00;;
84254;SDS011;74400;44.692;18.998;2024-03-25T13:09:27;2.05;;;1.42;;
84254;SDS011;74400;44.692;18.998;2024-03-25T13:11:57;12.02;;;3.92;;
84254;SDS011;74400;44.692;18.998;2024-03-25T13:14:25;1.75;;;1.00;;
84254;SDS011;74400;44.692;18.998;2024-03-25T13:16:51;3.33;;;1.73;;
84254;SDS011;74400;44.692;18.998;2024-03-25T13:19:17;2.00;;;1.33;;
84254;SDS011;74400;44.692;18.998;2024-03-25T13:21:44;2.58;;;1.50;;
84254;SDS011;74400;44.692;18.998;2024-03-25T13:24:10;7.18;;;3.08;;
84254;SDS011;74400;44.692;18.998;2024-03-25T13:26:39;2.30;;;0.95;;
84254;SDS011;74400;44.692;18.998;2024-03-25T13:29:07;5.57;;;2.95;;
84254;SDS011;74400;44.692;18.998;2024-03-25T13:34:11;2.53;;;1.20;;
84254;SDS011;74400;44.692;18.998;2024-03-25T13:39:12;1.67;;;0.80;;
84254;SDS011;74400;44.692;18.998;2024-03-25T13:41:38;2.63;;;1.13;;
84254;SDS011;74400;44.692;18.998;2024-03-25T13:44:08;1.92;;;0.90;;
84254;SDS011;74400;44.692;18.998;2024-03-25T13:47:14;2.83;;;1.35;;
84254;SDS011;74400;44.692;18.998;2024-03-25T13:53:34;3.38;;;1.35;;
84254;SDS011;74400;44.692;18.998;2024-03-25T13:56:09;2.40;;;1.00;;
84254;SDS011;74400;44.692;18.998;2024-03-25T13:59:16;1.88;;;0.82;;
84254;SDS011;74400;44.692;18.998;2024-03-25T14:01:43;2.05;;;1.00;;
84254;SDS011;74400;44.692;18.998;2024-03-25T14:07:04;3.45;;;1.20;;
84254;SDS011;74400;44.692;18.998;2024-03-25T14:09:54;3.47;;;1.20;;
84254;SDS011;74400;44.692;18.998;2024-03-25T14:12:37;1.38;;;0.80;;
84254;SDS011;74400;44.692;18.998;2024-03-25T14:15:05;2.58;;;1.05;;
84254;SDS011;74400;44.692;18.998;2024-03-25T14:18:17;2.00;;;0.90;;
84254;SDS011;74400;44.692;18.998;2024-03-25T14:20:51;2.25;;;1.20;;
84254;SDS011;74400;44.692;18.998;2024-03-25T14:23:17;3.03;;;1.20;;
84254;SDS011;74400;44.692;18.998;2024-03-25T14:25:42;3.97;;;1.45;;
84254;SDS011;74400;44.692;18.998;2024-03-25T14:28:08;2.70;;;1.55;;
84254;SDS011;74400;44.692;18.998;2024-03-25T14:30:35;4.28;;;2.10;;
84254;SDS011;74400;44.692;18.998;2024-03-25T14:33:00;1.45;;;0.77;;
84254;SDS011;74400;44.692;18.998;2024-03-25T14:35:26;1.13;;;0.80;;
84254;SDS011;74400;44.692;18.998;2024-03-25T14:37:54;1.85;;;0.82;;
84254;SDS011;74400;44.692;18.998;2024-03-25T14:42:53;4.78;;;1.00;;
84254;SDS011;74400;44.692;18.998;2024-03-25T14:45:19;1.70;;;0.90;;
84254;SDS011;74400;44.692;18.998;2024-03-25T14:50:18;3.17;;;1.10;;
84254;SDS011;74400;44.692;18.998;2024-03-25T14:52:45;1.98;;;1.10;;
84254;SDS011;74400;44.692;18.998;2024-03-25T14:55:11;3.90;;;1.17;;
84254;SDS011;74400;44.692;18.998;2024-03-25T14:57:38;2.38;;;1.30;;
84254;SDS011;74400;44.692;18.998;2024-03-25T15:00:09;1.80;;;1.02;;
84254;SDS011;74400;44.692;18.998;2024-03-25T15:02:36;2.83;;;1.38;;
84254;SDS011;74400;44.692;18.998;2024-03-25T15:05:01;2.38;;;1.38;;
84254;SDS011;74400;44.692;18.998;2024-03-25T15:07:30;3.53;;;1.25;;
84254;SDS011;74400;44.692;18.998;2024-03-25T15:09:56;3.53;;;1.00;;
84254;SDS011;74400;44.692;18.998;2024-03-25T15:12:22;2.83;;;1.48;;
84254;SDS011;74400;44.692;18.998;2024-03-25T15:14:52;4.22;;;1.70;;
84254;SDS011;74400;44.692;18.998;2024-03-25T15:17:18;2.65;;;1.45;;
84254;SDS011;74400;44.692;18.998;2024-03-25T15:19:43;3.08;;;2.08;;
84254;SDS011;74400;44.692;18.998;2024-03-25T15:22:09;2.22;;;1.42;;
84254;SDS011;74400;44.692;18.998;2024-03-25T15:24:35;2.42;;;1.50;;
84254;SDS011;74400;44.692;18.998;2024-03-25T15:27:00;4.35;;;1.92;;
84254;SDS011;74400;44.692;18.998;2024-03-25T15:29:27;3.53;;;1.17;;
84254;SDS011;74400;44.692;18.998;2024-03-25T15:31:53;2.95;;;1.50;;
84254;SDS011;74400;44.692;18.998;2024-03-25T15:37:11;8.25;;;3.60;;
84254;SDS011;74400;44.692;18.998;2024-03-25T15:39:41;5.85;;;2.70;;
84254;SDS011;74400;44.692;18.998;2024-03-25T15:42:09;3.35;;;2.08;;
84254;SDS011;74400;44.692;18.998;2024-03-25T15:44:58;2.15;;;1.20;;
84254;SDS011;74400;44.692;18.998;2024-03-25T15:47:24;2.85;;;1.88;;
84254;SDS011;74400;44.692;18.998;2024-03-25T15:49:53;3.03;;;1.70;;
84254;SDS011;74400;44.692;18.998;2024-03-25T15:52:18;4.43;;;2.42;;
84254;SDS011;74400;44.692;18.998;2024-03-25T15:54:44;4.50;;;2.05;;
84254;SDS011;74400;44.692;18.998;2024-03-25T15:57:10;3.50;;;1.58;;
84254;SDS011;74400;44.692;18.998;2024-03-25T15:59:35;5.03;;;2.30;;
84254;SDS011;74400;44.692;18.998;2024-03-25T16:02:01;3.05;;;1.63;;
84254;SDS011;74400;44.692;18.998;2024-03-25T16:04:27;3.38;;;1.30;;
84254;SDS011;74400;44.692;18.998;2024-03-25T16:06:52;2.47;;;1.45;;
84254;SDS011;74400;44.692;18.998;2024-03-25T16:09:18;1.50;;;1.10;;
84254;SDS011;74400;44.692;18.998;2024-03-25T16:11:45;2.47;;;1.10;;
84254;SDS011;74400;44.692;18.998;2024-03-25T16:14:11;2.80;;;1.55;;
84254;SDS011;74400;44.692;18.998;2024-03-25T16:16:43;9.63;;;4.10;;
84254;SDS011;74400;44.692;18.998;2024-03-25T16:19:09;5.75;;;3.10;;
84254;SDS011;74400;44.692;18.998;2024-03-25T16:21:38;13.45;;;5.55;;
84254;SDS011;74400;44.692;18.998;2024-03-25T16:24:17;12.20;;;5.75;;
84254;SDS011;74400;44.692;18.998;2024-03-25T16:26:44;11.35;;;5.60;;
84254;SDS011;74400;44.692;18.998;2024-03-25T16:29:10;12.18;;;6.82;;
84254;SDS011;74400;44.692;18.998;2024-03-25T16:31:38;9.77;;;4.68;;
84254;SDS011;74400;44.692;18.998;2024-03-25T16:34:04;6.95;;;3.28;;
84254;SDS011;74400;44.692;18.998;2024-03-25T16:36:30;4.53;;;2.17;;
84254;SDS011;74400;44.692;18.998;2024-03-25T16:38:56;3.83;;;1.85;;
84254;SDS011;74400;44.692;18.998;2024-03-25T16:41:21;3.30;;;1.92;;
84254;SDS011;74400;44.692;18.998;2024-03-25T16:43:47;3.75;;;1.50;;
84254;SDS011;74400;44.692;18.998;2024-03-25T16:46:13;3.67;;;1.70;;
84254;SDS011;74400;44.692;18.998;2024-03-25T16:48:39;3.30;;;1.80;;
84254;SDS011;74400;44.692;18.998;2024-03-25T16:51:05;5.72;;;1.58;;
84254;SDS011;74400;44.692;18.998;2024-03-25T16:53:30;4.28;;;1.80;;
84254;SDS011;74400;44.692;18.998;2024-03-25T16:55:58;3.65;;;1.55;;
84254;SDS011;74400;44.692;18.998;2024-03-25T16:58:24;3.75;;;1.48;;
84254;SDS011;74400;44.692;18.998;2024-03-25T17:00:50;3.55;;;1.45;;
84254;SDS011;74400;44.692;18.998;2024-03-25T17:03:17;3.15;;;1.30;;
84254;SDS011;74400;44.692;18.998;2024-03-25T17:05:43;6.38;;;1.48;;
84254;SDS011;74400;44.692;18.998;2024-03-25T17:08:09;9.90;;;2.00;;
84254;SDS011;74400;44.692;18.998;2024-03-25T17:10:35;2.72;;;1.40;;
84254;SDS011;74400;44.692;18.998;2024-03-25T17:13:00;3.60;;;1.77;;
84254;SDS011;74400;44.692;18.998;2024-03-25T17:15:26;4.45;;;1.95;;
84254;SDS011;74400;44.692;18.998;2024-03-25T17:17:52;4.45;;;1.58;;
84254;SDS011;74400;44.692;18.998;2024-03-25T17:20:17;2.53;;;1.40;;
84254;SDS011;74400;44.692;18.998;2024-03-25T17:22:43;3.45;;;1.27;;
84254;SDS011;74400;44.692;18.998;2024-03-25T17:25:09;3.42;;;1.63;;
84254;SDS011;74400;44.692;18.998;2024-03-25T17:27:35;4.85;;;2.22;;
84254;SDS011;74400;44.692;18.998;2024-03-25T17:30:01;44.50;;;20.77;;
84254;SDS011;74400;44.692;18.998;2024-03-25T17:32:29;20.90;;;10.70;;
84254;SDS011;74400;44.692;18.998;2024-03-25T17:34:55;68.10;;;33.95;;
84254;SDS011;74400;44.692;18.998;2024-03-25T17:37:20;107.25;;;48.00;;
84254;SDS011;74400;44.692;18.998;2024-03-25T17:39:46;27.50;;;11.82;;
84254;SDS011;74400;44.692;18.998;2024-03-25T17:42:12;26.75;;;13.45;;
84254;SDS011;74400;44.692;18.998;2024-03-25T17:44:38;15.35;;;7.53;;
84254;SDS011;74400;44.692;18.998;2024-03-25T17:47:06;7.75;;;3.70;;
84254;SDS011;74400;44.692;18.998;2024-03-25T17:49:33;15.75;;;7.35;;
84254;SDS011;74400;44.692;18.998;2024-03-25T17:51:59;10.60;;;6.88;;
84254;SDS011;74400;44.692;18.998;2024-03-25T17:54:25;12.45;;;6.07;;
84254;SDS011;74400;44.692;18.998;2024-03-25T17:56:50;7.90;;;3.95;;
84254;SDS011;74400;44.692;18.998;2024-03-25T17:59:16;8.02;;;4.53;;
84254;SDS011;74400;44.692;18.998;2024-03-25T18:01:41;13.15;;;5.03;;
84254;SDS011;74400;44.692;18.998;2024-03-25T18:04:07;6.75;;;3.67;;
84254;SDS011;74400;44.692;18.998;2024-03-25T18:06:37;12.93;;;4.45;;
84254;SDS011;74400;44.692;18.998;2024-03-25T18:09:03;8.93;;;4.40;;
84254;SDS011;74400;44.692;18.998;2024-03-25T18:11:29;13.15;;;4.22;;
84254;SDS011;74400;44.692;18.998;2024-03-25T18:13:54;13.98;;;5.90;;
84254;SDS011;74400;44.692;18.998;2024-03-25T18:16:20;10.73;;;4.30;;
84254;SDS011;74400;44.692;18.998;2024-03-25T18:18:45;4.32;;;2.40;;
84254;SDS011;74400;44.692;18.998;2024-03-25T18:21:11;7.63;;;3.45;;
84254;SDS011;74400;44.692;18.998;2024-03-25T18:23:37;7.95;;;4.60;;
84254;SDS011;74400;44.692;18.998;2024-03-25T18:26:02;14.68;;;7.03;;
84254;SDS011;74400;44.692;18.998;2024-03-25T18:28:28;23.55;;;11.75;;
84254;SDS011;74400;44.692;18.998;2024-03-25T18:30:58;17.17;;;9.50;;
84254;SDS011;74400;44.692;18.998;2024-03-25T18:33:24;17.02;;;8.45;;
84254;SDS011;74400;44.692;18.998;2024-03-25T18:35:51;21.23;;;9.05;;
84254;SDS011;74400;44.692;18.998;2024-03-25T18:38:16;20.30;;;8.90;;
84254;SDS011;74400;44.692;18.998;2024-03-25T18:40:42;20.65;;;9.18;;
84254;SDS011;74400;44.692;18.998;2024-03-25T18:43:07;11.95;;;5.88;;
84254;SDS011;74400;44.692;18.998;2024-03-25T18:45:33;14.38;;;6.93;;
84254;SDS011;74400;44.692;18.998;2024-03-25T18:48:00;17.92;;;6.80;;
84254;SDS011;74400;44.692;18.998;2024-03-25T18:50:25;22.65;;;8.55;;
84254;SDS011;74400;44.692;18.998;2024-03-25T18:52:51;21.20;;;9.18;;
84254;SDS011;74400;44.692;18.998;2024-03-25T18:55:17;28.88;;;11.52;;
84254;SDS011;74400;44.692;18.998;2024-03-25T18:57:42;25.10;;;10.98;;
84254;SDS011;74400;44.692;18.998;2024-03-25T19:00:08;31.58;;;12.27;;
84254;SDS011;74400;44.692;18.998;2024-03-25T19:02:35;25.05;;;11.05;;
84254;SDS011;74400;44.692;18.998;2024-03-25T19:05:03;23.08;;;8.75;;
84254;SDS011;74400;44.692;18.998;2024-03-25T19:07:30;18.30;;;7.30;;
84254;SDS011;74400;44.692;18.998;2024-03-25T19:09:57;25.35;;;8.93;;
84254;SDS011;74400;44.692;18.998;2024-03-25T19:12:23;23.73;;;9.77;;
84254;SDS011;74400;44.692;18.998;2024-03-25T19:14:48;29.10;;;11.98;;
84254;SDS011;74400;44.692;18.998;2024-03-25T19:17:14;34.97;;;12.27;;
84254;SDS011;74400;44.692;18.998;2024-03-25T19:19:40;26.63;;;11.30;;
84254;SDS011;74400;44.692;18.998;2024-03-25T19:22:06;24.15;;;10.77;;
84254;SDS011;74400;44.692;18.998;2024-03-25T19:24:31;26.58;;;10.00;;
84254;SDS011;74400;44.692;18.998;2024-03-25T19:26:58;34.55;;;13.98;;
84254;SDS011;74400;44.692;18.998;2024-03-25T19:29:24;31.10;;;13.77;;
84254;SDS011;74400;44.692;18.998;2024-03-25T19:31:51;32.60;;;13.85;;
84254;SDS011;74400;44.692;18.998;2024-03-25T19:34:17;50.35;;;20.15;;
84254;SDS011;74400;44.692;18.998;2024-03-25T19:36:42;51.40;;;21.95;;
84254;SDS011;74400;44.692;18.998;2024-03-25T19:39:08;32.75;;;12.82;;
84254;SDS011;74400;44.692;18.998;2024-03-25T19:41:34;45.67;;;15.50;;
84254;SDS011;74400;44.692;18.998;2024-03-25T19:43:59;34.30;;;14.77;;
84254;SDS011;74400;44.692;18.998;2024-03-25T19:46:27;33.72;;;14.07;;
84254;SDS011;74400;44.692;18.998;2024-03-25T19:48:54;38.33;;;14.70;;
84254;SDS011;74400;44.692;18.998;2024-03-25T19:53:45;24.25;;;12.40;;
84254;SDS011;74400;44.692;18.998;2024-03-25T19:56:11;31.02;;;12.15;;
84254;SDS011;74400;44.692;18.998;2024-03-25T19:58:37;26.27;;;11.15;;
84254;SDS011;74400;44.692;18.998;2024-03-25T20:01:09;24.70;;;10.75;;
84254;SDS011;74400;44.692;18.998;2024-03-25T20:03:35;30.45;;;12.18;;
84254;SDS011;74400;44.692;18.998;2024-03-25T20:06:01;27.08;;;11.77;;
84254;SDS011;74400;44.692;18.998;2024-03-25T20:08:30;22.38;;;9.98;;
84254;SDS011;74400;44.692;18.998;2024-03-25T20:10:56;23.95;;;10.90;;
84254;SDS011;74400;44.692;18.998;2024-03-25T20:13:22;25.67;;;11.20;;
84254;SDS011;74400;44.692;18.998;2024-03-25T20:15:48;36.83;;;12.30;;
84254;SDS011;74400;44.692;18.998;2024-03-25T20:18:13;31.55;;;12.52;;
84254;SDS011;74400;44.692;18.998;2024-03-25T20:20:39;31.13;;;13.50;;
84254;SDS011;74400;44.692;18.998;2024-03-25T20:23:06;24.95;;;11.73;;
84254;SDS011;74400;44.692;18.998;2024-03-25T20:25:32;26.50;;;12.05;;
84254;SDS011;74400;44.692;18.998;2024-03-25T20:27:58;28.17;;;11.88;;
84254;SDS011;74400;44.692;18.998;2024-03-25T20:30:24;30.98;;;12.23;;
84254;SDS011;74400;44.692;18.998;2024-03-25T20:32:49;27.58;;;11.85;;
84254;SDS011;74400;44.692;18.998;2024-03-25T20:35:15;34.08;;;12.55;;
84254;SDS011;74400;44.692;18.998;2024-03-25T20:37:41;22.15;;;10.02;;
84254;SDS011;74400;44.692;18.998;2024-03-25T20:40:07;28.92;;;10.88;;
84254;SDS011;74400;44.692;18.998;2024-03-25T20:42:33;29.25;;;11.40;;
84254;SDS011;74400;44.692;18.998;2024-03-25T20:44:58;29.40;;;12.27;;
84254;SDS011;74400;44.692;18.998;2024-03-25T20:47:24;25.33;;;11.32;;
84254;SDS011;74400;44.692;18.998;2024-03-25T20:49:50;34.75;;;13.98;;
84254;SDS011;74400;44.692;18.998;2024-03-25T20:52:15;27.30;;;12.05;;
84254;SDS011;74400;44.692;18.998;2024-03-25T20:54:42;29.95;;;12.90;;
84254;SDS011;74400;44.692;18.998;2024-03-25T20:57:07;31.27;;;12.95;;
84254;SDS011;74400;44.692;18.998;2024-03-25T20:59:33;31.35;;;15.13;;
84254;SDS011;74400;44.692;18.998;2024-03-25T21:01:59;35.13;;;14.70;;
84254;SDS011;74400;44.692;18.998;2024-03-25T21:04:24;33.80;;;12.88;;
84254;SDS011;74400;44.692;18.998;2024-03-25T21:06:50;26.83;;;12.20;;
84254;SDS011;74400;44.692;18.998;2024-03-25T21:09:16;28.52;;;12.20;;
84254;SDS011;74400;44.692;18.998;2024-03-25T21:11:41;31.60;;;13.13;;
84254;SDS011;74400;44.692;18.998;2024-03-25T21:14:07;24.15;;;11.43;;
84254;SDS011;74400;44.692;18.998;2024-03-25T21:16:33;23.40;;;11.10;;
84254;SDS011;74400;44.692;18.998;2024-03-25T21:18:59;26.75;;;11.82;;
84254;SDS011;74400;44.692;18.998;2024-03-25T21:21:25;40.67;;;16.02;;
84254;SDS011;74400;44.692;18.998;2024-03-25T21:23:51;31.05;;;14.05;;
84254;SDS011;74400;44.692;18.998;2024-03-25T21:26:17;30.65;;;12.88;;
84254;SDS011;74400;44.692;18.998;2024-03-25T21:28:42;26.88;;;11.32;;
84254;SDS011;74400;44.692;18.998;2024-03-25T21:31:08;23.85;;;12.20;;
84254;SDS011;74400;44.692;18.998;2024-03-25T21:33:35;26.75;;;13.05;;
84254;SDS011;74400;44.692;18.998;2024-03-25T21:36:02;30.85;;;12.15;;
84254;SDS011;74400;44.692;18.998;2024-03-25T21:38:28;30.27;;;13.57;;
84254;SDS011;74400;44.692;18.998;2024-03-25T21:40:53;27.25;;;11.25;;
84254;SDS011;74400;44.692;18.998;2024-03-25T21:45:45;23.38;;;10.88;;
84254;SDS011;74400;44.692;18.998;2024-03-25T21:48:11;30.27;;;11.48;;
84254;SDS011;74400;44.692;18.998;2024-03-25T21:50:36;21.80;;;10.90;;
84254;SDS011;74400;44.692;18.998;2024-03-25T21:53:04;21.98;;;10.68;;
84254;SDS011;74400;44.692;18.998;2024-03-25T21:55:30;27.65;;;14.80;;
84254;SDS011;74400;44.692;18.998;2024-03-25T21:57:56;18.58;;;8.65;;
84254;SDS011;74400;44.692;18.998;2024-03-25T22:00:21;15.35;;;7.32;;
84254;SDS011;74400;44.692;18.998;2024-03-25T22:02:47;18.80;;;9.68;;
84254;SDS011;74400;44.692;18.998;2024-03-25T22:05:13;23.23;;;11.07;;
84254;SDS011;74400;44.692;18.998;2024-03-25T22:07:38;25.65;;;12.25;;
84254;SDS011;74400;44.692;18.998;2024-03-25T22:10:04;23.45;;;11.02;;
84254;SDS011;74400;44.692;18.998;2024-03-25T22:12:30;21.25;;;10.52;;
84254;SDS011;74400;44.692;18.998;2024-03-25T22:14:55;20.55;;;9.07;;
84254;SDS011;74400;44.692;18.998;2024-03-25T22:17:21;26.60;;;10.63;;
84254;SDS011;74400;44.692;18.998;2024-03-25T22:19:47;21.02;;;11.18;;
84254;SDS011;74400;44.692;18.998;2024-03-25T22:22:15;28.52;;;12.63;;
84254;SDS011;74400;44.692;18.998;2024-03-25T22:24:41;24.05;;;11.68;;
84254;SDS011;74400;44.692;18.998;2024-03-25T22:27:06;24.35;;;11.52;;
84254;SDS011;74400;44.692;18.998;2024-03-25T22:29:32;21.33;;;10.18;;
84254;SDS011;74400;44.692;18.998;2024-03-25T22:31:57;25.63;;;10.95;;
84254;SDS011;74400;44.692;18.998;2024-03-25T22:34:23;19.40;;;9.68;;
84254;SDS011;74400;44.692;18.998;2024-03-25T22:36:49;19.45;;;9.18;;
84254;SDS011;74400;44.692;18.998;2024-03-25T22:39:15;18.25;;;8.88;;
84254;SDS011;74400;44.692;18.998;2024-03-25T22:41:40;24.48;;;11.48;;
84254;SDS011;74400;44.692;18.998;2024-03-25T22:44:06;25.48;;;9.77;;
84254;SDS011;74400;44.692;18.998;2024-03-25T22:46:32;32.80;;;14.00;;
84254;SDS011;74400;44.692;18.998;2024-03-25T22:48:57;32.38;;;14.98;;
84254;SDS011;74400;44.692;18.998;2024-03-25T22:51:23;38.33;;;17.30;;
84254;SDS011;74400;44.692;18.998;2024-03-25T22:53:48;36.15;;;15.50;;
84254;SDS011;74400;44.692;18.998;2024-03-25T22:56:15;25.80;;;11.82;;
84254;SDS011;74400;44.692;18.998;2024-03-25T22:58:40;21.70;;;9.65;;
84254;SDS011;74400;44.692;18.998;2024-03-25T23:01:07;24.45;;;9.93;;
84254;SDS011;74400;44.692;18.998;2024-03-25T23:03:38;25.83;;;12.13;;
84254;SDS011;74400;44.692;18.998;2024-03-25T23:06:03;31.40;;;14.20;;
84254;SDS011;74400;44.692;18.998;2024-03-25T23:08:30;36.50;;;13.98;;
84254;SDS011;74400;44.692;18.998;2024-03-25T23:10:56;35.30;;;14.63;;
84254;SDS011;74400;44.692;18.998;2024-03-25T23:13:23;31.70;;;14.63;;
84254;SDS011;74400;44.692;18.998;2024-03-25T23:15:49;38.50;;;15.32;;
84254;SDS011;74400;44.692;18.998;2024-03-25T23:18:15;28.60;;;12.57;;
84254;SDS011;74400;44.692;18.998;2024-03-25T23:20:43;27.10;;;13.43;;
84254;SDS011;74400;44.692;18.998;2024-03-25T23:23:10;33.92;;;14.75;;
84254;SDS011;74400;44.692;18.998;2024-03-25T23:25:37;25.27;;;12.32;;
84254;SDS011;74400;44.692;18.998;2024-03-25T23:28:07;29.17;;;13.02;;
84254;SDS011;74400;44.692;18.998;2024-03-25T23:30:34;29.33;;;13.38;;
84254;SDS011;74400;44.692;18.998;2024-03-25T23:33:00;25.48;;;11.82;;
84254;SDS011;74400;44.692;18.998;2024-03-25T23:35:26;21.95;;;9.60;;
84254;SDS011;74400;44.692;18.998;2024-03-25T23:37:52;19.60;;;9.30;;
84254;SDS011;74400;44.692;18.998;2024-03-25T23:40:17;15.77;;;7.57;;
84254;SDS011;74400;44.692;18.998;2024-03-25T23:42:43;19.05;;;7.82;;
84254;SDS011;74400;44.692;18.998;2024-03-25T23:45:10;16.02;;;7.65;;
84254;SDS011;74400;44.692;18.998;2024-03-25T23:47:36;17.25;;;7.75;;
84254;SDS011;74400;44.692;18.998;2024-03-25T23:50:02;24.30;;;10.90;;
84254;SDS011;74400;44.692;18.998;2024-03-25T23:52:30;18.15;;;8.73;;
84254;SDS011;74400;44.692;18.998;2024-03-25T23:54:56;18.10;;;7.68;;
84254;SDS011;74400;44.692;18.998;2024-03-25T23:57:22;14.75;;;7.72;;
84254;SDS011;74400;44.692;18.998;2024-03-25T23:59:49;14.07;;;7.25;;
